createdAt,value
2019-05-18T00:01:01.542Z,21.17
2019-05-18T00:03:31.316Z,21.07
2019-05-18T00:06:00.750Z,21.83
2019-05-18T00:08:30.250Z,22.33
2019-05-18T00:10:59.756Z,21.63
2019-05-18T00:13:29.370Z,22.30
2019-05-18T00:15:58.782Z,22.33
2019-05-18T00:18:28.170Z,21.00
2019-05-18T00:20:57.734Z,21.73
2019-05-18T00:23:27.183Z,20.97
2019-05-18T00:25:56.663Z,21.83
2019-05-18T00:28:26.126Z,21.30
2019-05-18T00:30:55.727Z,21.43
2019-05-18T00:33:25.321Z,21.47
2019-05-18T00:35:54.801Z,20.63
2019-05-18T00:38:24.526Z,20.37
2019-05-18T00:40:53.894Z,21.47
2019-05-18T00:43:23.778Z,20.50
2019-05-18T00:45:53.210Z,21.67
2019-05-18T00:48:22.733Z,20.17
2019-05-18T00:50:52.235Z,20.53
2019-05-18T00:53:21.721Z,21.80
2019-05-18T00:55:51.148Z,21.30
2019-05-18T00:58:20.709Z,21.27
2019-05-18T01:00:50.187Z,22.10
2019-05-18T01:03:19.660Z,21.53
2019-05-18T01:05:49.210Z,22.33
2019-05-18T01:08:18.699Z,21.87
2019-05-18T01:10:48.219Z,21.30
2019-05-18T01:13:17.702Z,20.47
2019-05-18T01:15:47.112Z,21.57
2019-05-18T01:18:16.571Z,22.73
2019-05-18T01:20:47.016Z,21.37
2019-05-18T01:23:16.470Z,20.97
2019-05-18T01:25:46.080Z,21.80
2019-05-18T01:28:15.503Z,20.80
2019-05-18T01:30:45.192Z,22.67
2019-05-18T01:33:14.653Z,21.87
2019-05-18T01:35:44.160Z,23.40
2019-05-18T01:38:13.672Z,22.43
2019-05-18T01:40:43.083Z,22.67
2019-05-18T01:43:12.616Z,23.53
2019-05-18T01:45:42.063Z,23.30
2019-05-18T01:48:14.422Z,21.47
2019-05-18T01:50:42.698Z,22.00
2019-05-18T01:53:12.241Z,21.07
2019-05-18T01:55:41.679Z,24.17
2019-05-18T01:58:11.079Z,23.53
2019-05-18T02:00:40.555Z,23.20
2019-05-18T02:03:10.055Z,21.93
2019-05-18T02:05:39.496Z,24.33
2019-05-18T02:08:09.054Z,23.60
2019-05-18T02:10:38.486Z,24.13
2019-05-18T02:13:07.951Z,23.50
2019-05-18T02:15:37.359Z,23.77
2019-05-18T02:18:06.737Z,25.17
2019-05-18T02:20:36.204Z,24.80
2019-05-18T02:23:05.738Z,23.90
2019-05-18T02:25:35.431Z,23.93
2019-05-18T02:28:06.594Z,23.73
2019-05-18T02:30:36.041Z,24.10
2019-05-18T02:33:05.474Z,25.73
2019-05-18T02:35:34.939Z,25.90
2019-05-18T02:38:15.405Z,26.83
2019-05-18T02:40:46.007Z,24.53
2019-05-18T02:43:16.144Z,26.67
2019-05-18T02:45:45.747Z,29.83
2019-05-18T02:48:15.152Z,29.27
2019-05-18T02:50:44.659Z,29.37
2019-05-18T02:53:14.060Z,27.50
2019-05-18T02:55:43.587Z,28.70
2019-05-18T02:58:13.028Z,29.43
2019-05-18T03:00:42.583Z,28.63
2019-05-18T03:03:12.031Z,28.90
2019-05-18T03:05:41.559Z,29.93
2019-05-18T03:08:11.017Z,28.70
2019-05-18T03:10:40.586Z,30.10
2019-05-18T03:13:09.986Z,29.77
2019-05-18T03:15:39.351Z,31.70
2019-05-18T03:18:08.843Z,33.60
2019-05-18T03:20:38.307Z,34.47
2019-05-18T03:23:07.840Z,35.70
2019-05-18T03:25:37.275Z,36.23
2019-05-18T03:28:06.660Z,37.40
2019-05-18T03:30:36.128Z,39.53
2019-05-18T03:33:05.681Z,36.03
2019-05-18T03:35:35.220Z,36.93
2019-05-18T03:38:04.842Z,35.73
2019-05-18T03:40:34.502Z,36.23
2019-05-18T03:43:04.119Z,36.67
2019-05-18T03:45:33.687Z,35.13
2019-05-18T03:48:03.175Z,36.13
2019-05-18T03:50:32.658Z,37.17
2019-05-18T03:53:02.020Z,36.93
2019-05-18T03:55:31.752Z,38.70
2019-05-18T03:58:01.119Z,38.93
2019-05-18T04:00:30.681Z,39.23
2019-05-18T04:03:00.332Z,38.90
2019-05-18T04:05:29.739Z,41.90
2019-05-18T04:07:59.194Z,42.60
2019-05-18T04:10:28.991Z,42.00
2019-05-18T04:12:58.343Z,41.07
2019-05-18T04:15:27.794Z,43.93
2019-05-18T04:17:57.154Z,43.80
2019-05-18T04:20:26.609Z,42.63
2019-05-18T04:22:56.095Z,45.07
2019-05-18T04:25:25.523Z,42.70
2019-05-18T04:27:54.975Z,41.33
2019-05-18T04:30:25.137Z,42.50
2019-05-18T04:32:54.580Z,40.70
2019-05-18T04:35:24.059Z,41.03
2019-05-18T04:37:53.500Z,39.03
2019-05-18T04:40:23.061Z,39.57
2019-05-18T04:42:52.543Z,39.70
2019-05-18T04:45:22.001Z,38.77
2019-05-18T04:47:51.436Z,38.37
2019-05-18T04:50:20.854Z,37.67
2019-05-18T04:52:50.391Z,38.57
2019-05-18T04:55:19.879Z,39.17
2019-05-18T04:57:49.396Z,39.30
2019-05-18T05:00:18.816Z,39.30
2019-05-18T05:02:48.280Z,33.77
2019-05-18T05:05:17.725Z,40.53
2019-05-18T05:07:47.225Z,43.33
2019-05-18T05:10:16.746Z,42.73
2019-05-18T05:12:46.305Z,40.80
2019-05-18T05:15:15.789Z,42.10
2019-05-18T05:17:45.236Z,45.17
2019-05-18T05:20:19.643Z,47.53
2019-05-18T05:22:46.362Z,50.40
2019-05-18T05:25:15.706Z,48.13
2019-05-18T05:27:45.280Z,47.20
2019-05-18T05:30:15.111Z,43.03
2019-05-18T05:32:44.807Z,43.33
2019-05-18T05:35:14.243Z,41.20
2019-05-18T05:37:43.740Z,37.00
2019-05-18T05:40:13.548Z,33.50
2019-05-18T05:42:42.959Z,37.20
2019-05-18T05:45:12.786Z,36.67
2019-05-18T05:47:42.207Z,36.77
2019-05-18T05:50:11.726Z,39.97
2019-05-18T05:52:41.438Z,40.77
2019-05-18T05:55:12.910Z,41.53
2019-05-18T05:57:42.340Z,40.63
2019-05-18T06:00:12.146Z,40.13
2019-05-18T06:02:41.624Z,39.73
2019-05-18T06:05:11.281Z,39.83
2019-05-18T06:07:40.831Z,40.80
2019-05-18T06:10:10.472Z,42.03
2019-05-18T06:12:40.051Z,35.47
2019-05-18T06:15:10.430Z,34.00
2019-05-18T06:17:39.917Z,31.60
2019-05-18T06:20:09.949Z,30.13
2019-05-18T06:22:39.516Z,33.50
2019-05-18T06:25:09.463Z,34.60
2019-05-18T06:27:39.029Z,31.53
2019-05-18T06:30:09.206Z,30.17
2019-05-18T06:32:57.714Z,30.47
2019-05-18T06:35:27.248Z,29.93
2019-05-18T06:37:56.715Z,31.93
2019-05-18T06:40:26.145Z,33.40
2019-05-18T06:42:55.530Z,34.93
2019-05-18T06:45:25.012Z,37.07
2019-05-18T06:47:54.526Z,38.33
2019-05-18T06:50:29.916Z,35.33
2019-05-18T06:52:59.460Z,36.70
2019-05-18T06:55:28.991Z,33.53
2019-05-18T06:57:59.175Z,33.97
2019-05-18T07:00:28.615Z,32.57
2019-05-18T07:02:58.107Z,33.37
2019-05-18T07:05:27.565Z,32.20
2019-05-18T07:07:57.122Z,32.03
2019-05-18T07:10:26.528Z,37.00
2019-05-18T07:12:55.990Z,38.50
2019-05-18T07:15:25.435Z,31.37
2019-05-18T07:17:54.902Z,30.37
2019-05-18T07:20:24.382Z,33.30
2019-05-18T07:22:53.758Z,31.97
2019-05-18T07:25:23.223Z,29.33
2019-05-18T07:27:52.651Z,29.90
2019-05-18T07:30:22.159Z,30.40
2019-05-18T07:32:51.635Z,29.67
2019-05-18T07:35:21.347Z,28.47
2019-05-18T07:37:50.802Z,29.13
2019-05-18T07:40:20.213Z,30.30
2019-05-18T07:42:49.754Z,28.13
2019-05-18T07:45:19.299Z,28.60
2019-05-18T07:47:48.862Z,28.00
2019-05-18T07:50:18.495Z,27.97
2019-05-18T07:52:47.954Z,25.97
2019-05-18T07:55:17.311Z,24.80
2019-05-18T07:57:46.763Z,24.67
2019-05-18T08:00:16.498Z,26.10
2019-05-18T08:02:45.959Z,24.93
2019-05-18T08:05:15.535Z,27.50
2019-05-18T08:07:44.905Z,26.50
2019-05-18T08:10:14.863Z,26.23
2019-05-18T08:12:44.295Z,26.97
2019-05-18T08:15:13.965Z,26.30
2019-05-18T08:17:43.342Z,27.30
2019-05-18T08:20:13.144Z,27.40
2019-05-18T08:22:42.759Z,30.17
2019-05-18T08:25:12.724Z,26.23
2019-05-18T08:27:42.073Z,25.53
2019-05-18T08:30:11.785Z,24.23
2019-05-18T08:32:41.882Z,37.93
2019-05-18T08:35:11.324Z,40.40
2019-05-18T08:37:40.826Z,36.27
2019-05-18T08:40:11.242Z,33.30
2019-05-18T08:42:41.324Z,28.27
2019-05-18T08:45:11.163Z,24.47
2019-05-18T08:47:40.678Z,21.00
2019-05-18T08:50:11.331Z,18.87
2019-05-18T08:52:40.830Z,17.20
2019-05-18T08:55:10.675Z,16.83
2019-05-18T08:57:40.033Z,16.33
2019-05-18T09:00:11.595Z,16.67
2019-05-18T09:02:41.125Z,16.70
2019-05-18T09:05:10.845Z,15.77
2019-05-18T09:07:40.331Z,15.40
2019-05-18T09:10:11.861Z,13.80
2019-05-18T09:12:41.249Z,14.63
2019-05-18T09:15:11.901Z,15.80
2019-05-18T09:17:41.387Z,14.03
2019-05-18T09:20:12.193Z,13.07
2019-05-18T09:22:41.855Z,15.10
2019-05-18T09:25:12.459Z,15.23
2019-05-18T09:27:41.876Z,14.57
2019-05-18T09:30:12.228Z,13.73
2019-05-18T09:32:41.678Z,14.53
2019-05-18T09:35:11.266Z,14.90
2019-05-18T09:37:40.733Z,12.83
2019-05-18T09:40:10.586Z,12.00
2019-05-18T09:42:40.021Z,12.07
2019-05-18T09:45:11.423Z,11.50
2019-05-18T09:47:41.006Z,10.90
2019-05-18T09:50:11.160Z,9.73
2019-05-18T09:52:45.783Z,9.78
2019-05-18T09:55:12.006Z,10.17
2019-05-18T09:57:41.491Z,9.55
2019-05-18T10:00:12.006Z,9.23
2019-05-18T10:02:41.459Z,8.98
2019-05-18T10:05:11.224Z,9.10
2019-05-18T10:07:40.574Z,9.48
2019-05-18T10:10:10.819Z,10.05
2019-05-18T10:12:40.309Z,9.03
2019-05-18T10:15:10.238Z,9.00
2019-05-18T10:17:39.718Z,9.20
2019-05-18T10:20:10.018Z,9.08
2019-05-18T10:22:53.389Z,7.47
2019-05-18T10:25:11.394Z,6.58
2019-05-18T10:27:41.055Z,6.85
2019-05-18T10:30:11.061Z,7.20
2019-05-18T10:32:40.643Z,6.58
2019-05-18T10:35:10.479Z,6.17
2019-05-18T10:37:40.160Z,6.35
2019-05-18T10:40:10.067Z,6.95
2019-05-18T10:42:39.654Z,7.62
2019-05-18T10:45:09.790Z,7.10
2019-05-18T10:47:39.364Z,7.25
2019-05-18T10:50:10.109Z,7.28
2019-05-18T10:52:39.577Z,8.98
2019-05-18T10:55:09.964Z,8.15
2019-05-18T10:57:39.427Z,8.60
2019-05-18T11:00:10.435Z,9.20
2019-05-18T11:02:39.949Z,9.38
2019-05-18T11:05:10.127Z,8.78
2019-05-18T11:07:39.654Z,8.70
2019-05-18T11:10:10.165Z,8.40
2019-05-18T11:12:40.000Z,8.50
2019-05-18T11:15:09.902Z,7.83
2019-05-18T11:17:39.313Z,7.80
2019-05-18T11:20:09.840Z,7.97
2019-05-18T11:22:39.456Z,7.50
2019-05-18T11:25:09.567Z,8.43
2019-05-18T11:27:39.005Z,7.70
2019-05-18T11:30:10.181Z,7.65
2019-05-18T11:32:39.858Z,7.87
2019-05-18T11:35:10.163Z,7.47
2019-05-18T11:37:39.759Z,7.40
2019-05-18T11:40:10.086Z,7.58
2019-05-18T11:42:39.571Z,7.67
2019-05-18T11:45:11.008Z,7.60
2019-05-18T11:47:40.500Z,8.40
2019-05-18T11:50:11.300Z,7.78
2019-05-18T11:52:40.749Z,7.90
2019-05-18T11:55:10.412Z,8.03
2019-05-18T11:57:39.762Z,7.50
2019-05-18T12:00:11.288Z,8.05
2019-05-18T12:02:40.880Z,7.75
2019-05-18T12:05:10.979Z,7.08
2019-05-18T12:07:40.396Z,7.70
2019-05-18T12:10:10.894Z,7.92
2019-05-18T12:12:40.252Z,7.50
2019-05-18T12:15:11.058Z,7.47
2019-05-18T12:17:40.483Z,7.92
2019-05-18T12:20:11.740Z,7.00
2019-05-18T12:22:41.135Z,7.10
2019-05-18T12:25:11.154Z,6.97
2019-05-18T12:27:40.818Z,7.33
2019-05-18T12:30:11.263Z,7.15
2019-05-18T12:32:40.774Z,7.65
2019-05-18T12:35:11.650Z,7.80
2019-05-18T12:37:41.138Z,7.75
2019-05-18T12:40:11.506Z,7.40
2019-05-18T12:42:41.022Z,7.47
2019-05-18T12:45:11.011Z,7.53
2019-05-18T12:47:40.417Z,8.00
2019-05-18T12:50:11.678Z,7.62
2019-05-18T12:52:41.077Z,7.55
2019-05-18T12:55:10.630Z,7.62
2019-05-18T12:57:40.144Z,8.15
2019-05-18T13:00:10.495Z,7.62
2019-05-18T13:02:40.016Z,8.30
2019-05-18T13:05:10.091Z,8.05
2019-05-18T13:07:39.651Z,7.60
2019-05-18T13:10:11.359Z,7.62
2019-05-18T13:12:40.856Z,7.90
2019-05-18T13:15:12.345Z,7.75
2019-05-18T13:17:41.806Z,7.35
2019-05-18T13:20:12.166Z,7.65
2019-05-18T13:22:41.530Z,7.53
2019-05-18T13:25:11.845Z,7.75
2019-05-18T13:27:41.422Z,7.75
2019-05-18T13:30:11.636Z,7.47
2019-05-18T13:32:41.362Z,6.90
2019-05-18T13:35:11.571Z,6.65
2019-05-18T13:37:40.959Z,7.20
2019-05-18T13:40:12.465Z,6.72
2019-05-18T13:42:41.962Z,7.03
2019-05-18T13:45:13.629Z,7.40
2019-05-18T13:47:43.124Z,7.30
2019-05-18T13:50:13.339Z,7.33
2019-05-18T13:52:42.762Z,6.67
2019-05-18T13:55:12.211Z,6.67
2019-05-18T13:57:41.705Z,7.20
2019-05-18T14:00:11.415Z,6.28
2019-05-18T14:02:40.797Z,6.72
2019-05-18T14:05:10.627Z,6.37
2019-05-18T14:07:40.650Z,7.10
2019-05-18T14:10:12.580Z,6.28
2019-05-18T14:12:42.144Z,7.20
2019-05-18T14:15:12.916Z,6.80
2019-05-18T14:17:42.436Z,7.25
2019-05-18T14:20:13.499Z,6.80
2019-05-18T14:22:42.898Z,7.28
2019-05-18T14:25:19.430Z,6.92
2019-05-18T14:27:43.513Z,7.20
2019-05-18T14:30:13.591Z,7.08
2019-05-18T14:32:43.012Z,6.92
2019-05-18T14:35:12.480Z,6.35
2019-05-18T14:37:41.856Z,6.53
2019-05-18T14:40:11.711Z,6.65
2019-05-18T14:42:41.193Z,5.83
2019-05-18T14:45:11.086Z,5.42
2019-05-18T14:47:40.450Z,6.15
2019-05-18T14:50:10.533Z,5.72
2019-05-18T14:52:40.098Z,6.08
2019-05-18T14:55:09.966Z,6.15
2019-05-18T14:57:39.478Z,5.95
2019-05-18T15:00:11.018Z,5.87
2019-05-18T15:02:40.449Z,5.75
2019-05-18T15:05:10.371Z,5.97
2019-05-18T15:07:39.856Z,5.72
2019-05-18T15:10:09.989Z,5.70
2019-05-18T15:12:39.542Z,6.08
2019-05-18T15:15:09.977Z,5.90
2019-05-18T15:17:39.617Z,6.62
2019-05-18T15:20:09.454Z,5.92
2019-05-18T15:22:39.016Z,5.25
2019-05-18T15:25:09.130Z,4.90
2019-05-18T15:27:38.564Z,5.20
2019-05-18T15:30:08.578Z,5.10
2019-05-18T15:32:38.033Z,5.00
2019-05-18T15:35:08.303Z,5.10
2019-05-18T15:37:37.950Z,5.33
2019-05-18T15:40:07.926Z,5.40
2019-05-18T15:42:37.440Z,5.40
2019-05-18T15:45:07.176Z,4.70
2019-05-18T15:47:36.691Z,4.70
2019-05-18T15:50:06.323Z,5.12
2019-05-18T15:52:35.818Z,4.37
2019-05-18T15:55:05.755Z,3.95
2019-05-18T15:57:35.267Z,4.55
2019-05-18T16:00:06.834Z,4.33
2019-05-18T16:02:36.383Z,4.10
2019-05-18T16:05:06.172Z,4.33
2019-05-18T16:07:35.828Z,4.87
2019-05-18T16:10:06.211Z,4.80
2019-05-18T16:12:35.574Z,4.67
2019-05-18T16:15:05.934Z,5.40
2019-05-18T16:17:39.356Z,5.45
2019-05-18T16:20:07.228Z,4.53
2019-05-18T16:22:36.726Z,4.87
2019-05-18T16:25:07.261Z,4.45
2019-05-18T16:27:36.819Z,5.00
2019-05-18T16:30:06.779Z,4.65
2019-05-18T16:32:36.311Z,4.45
2019-05-18T16:35:06.555Z,4.37
2019-05-18T16:37:35.986Z,4.80
2019-05-18T16:40:06.067Z,5.30
2019-05-18T16:42:35.524Z,5.08
2019-05-18T16:45:05.866Z,4.90
2019-05-18T16:47:35.302Z,5.12
2019-05-18T16:50:05.430Z,5.42
2019-05-18T16:52:34.799Z,5.58
2019-05-18T16:55:04.339Z,5.45
2019-05-18T16:57:33.766Z,5.28
2019-05-18T17:00:03.122Z,5.50
2019-05-18T17:02:32.599Z,5.30
2019-05-18T17:05:02.124Z,5.25
2019-05-18T17:07:31.789Z,5.08
2019-05-18T17:10:01.259Z,5.40
2019-05-18T17:12:30.823Z,5.50
2019-05-18T17:15:00.367Z,5.60
2019-05-18T17:17:29.812Z,5.15
2019-05-18T17:19:59.300Z,5.78
2019-05-18T17:22:29.814Z,6.22
2019-05-18T17:24:59.229Z,5.33
2019-05-18T17:27:28.579Z,5.90
2019-05-18T17:29:58.169Z,5.85
2019-05-18T17:32:27.606Z,6.42
2019-05-18T17:34:57.157Z,5.78
2019-05-18T17:37:26.609Z,5.87
2019-05-18T17:39:56.022Z,5.70
2019-05-18T17:42:26.342Z,5.30
2019-05-18T17:44:55.771Z,5.37
2019-05-18T17:47:25.156Z,5.87
2019-05-18T17:49:54.587Z,5.90
2019-05-18T17:52:24.036Z,5.08
2019-05-18T17:54:53.600Z,5.60
2019-05-18T17:57:23.167Z,5.55
2019-05-18T17:59:52.546Z,5.80
2019-05-18T18:02:22.141Z,5.75
2019-05-18T18:04:54.170Z,6.08
2019-05-18T18:07:22.887Z,6.35
2019-05-18T18:09:52.331Z,6.12
2019-05-18T18:12:21.911Z,6.12
2019-05-18T18:14:51.412Z,6.50
2019-05-18T18:17:20.815Z,6.25
2019-05-18T18:19:50.279Z,6.58
2019-05-18T18:22:19.725Z,6.90
2019-05-18T18:24:49.364Z,6.83
2019-05-18T18:27:25.211Z,6.47
2019-05-18T18:29:49.982Z,6.72
2019-05-18T18:32:19.442Z,6.95
2019-05-18T18:34:48.876Z,7.03
2019-05-18T18:37:18.342Z,7.92
2019-05-18T18:39:47.913Z,6.95
2019-05-18T18:42:17.474Z,7.70
2019-05-18T18:44:46.967Z,8.45
2019-05-18T18:47:16.575Z,7.80
2019-05-18T18:49:46.168Z,8.23
2019-05-18T18:52:15.615Z,8.75
2019-05-18T18:54:45.023Z,9.43
2019-05-18T18:57:14.451Z,9.93
2019-05-18T18:59:43.842Z,10.25
2019-05-18T19:02:13.391Z,10.38
2019-05-18T19:04:42.915Z,10.72
2019-05-18T19:07:12.459Z,12.18
2019-05-18T19:09:41.798Z,12.18
2019-05-18T19:12:11.471Z,13.20
2019-05-18T19:14:41.180Z,12.87
2019-05-18T19:17:10.738Z,12.70
2019-05-18T19:19:40.372Z,14.15
2019-05-18T19:22:09.791Z,13.83
2019-05-18T19:24:39.326Z,13.47
2019-05-18T19:27:08.751Z,13.85
2019-05-18T19:29:38.363Z,14.33
2019-05-18T19:32:07.935Z,14.13
2019-05-18T19:34:37.515Z,15.32
2019-05-18T19:37:06.995Z,14.47
2019-05-18T19:39:36.436Z,15.60
2019-05-18T19:42:05.951Z,15.27
2019-05-18T19:44:36.156Z,15.13
2019-05-18T19:47:05.564Z,16.00
2019-05-18T19:49:35.073Z,16.50
2019-05-18T19:52:04.619Z,14.85
2019-05-18T19:54:34.088Z,16.12
2019-05-18T19:57:03.826Z,15.70
2019-05-18T19:59:33.270Z,16.00
2019-05-18T20:02:02.850Z,15.65
2019-05-18T20:04:32.374Z,15.10
2019-05-18T20:07:01.848Z,15.83
2019-05-18T20:09:31.357Z,15.35
2019-05-18T20:12:00.970Z,16.35
2019-05-18T20:14:30.688Z,16.85
2019-05-18T20:17:00.181Z,16.53
2019-05-18T20:19:38.549Z,17.50
2019-05-18T20:22:01.041Z,16.87
2019-05-18T20:24:30.478Z,19.90
2019-05-18T20:27:00.302Z,19.37
2019-05-18T20:29:29.792Z,20.43
2019-05-18T20:31:59.287Z,21.48
2019-05-18T20:34:28.854Z,22.90
2019-05-18T20:36:58.285Z,24.70
2019-05-18T20:39:27.817Z,23.83
2019-05-18T20:41:57.206Z,24.92
2019-05-18T20:44:26.802Z,26.42
2019-05-18T20:46:58.772Z,26.73
2019-05-18T20:49:28.325Z,27.32
2019-05-18T20:51:57.832Z,25.13
2019-05-18T20:54:27.318Z,20.68
2019-05-18T20:56:56.733Z,20.43
2019-05-18T20:59:26.194Z,21.12
2019-05-18T21:01:55.734Z,20.92
2019-05-18T21:04:25.190Z,21.95
2019-05-18T21:06:54.642Z,22.50
2019-05-18T21:09:24.049Z,23.67
2019-05-18T21:11:53.546Z,45.93
2019-05-18T21:14:23.069Z,31.48
2019-05-18T21:16:52.624Z,26.90
2019-05-18T21:19:22.126Z,26.40
2019-05-18T21:21:51.623Z,25.40
2019-05-18T21:24:21.072Z,24.00
2019-05-18T21:26:50.576Z,25.97
2019-05-18T21:29:20.057Z,22.48
2019-05-18T21:31:49.427Z,21.07
2019-05-18T21:34:19.203Z,21.00
2019-05-18T21:36:48.915Z,22.00
2019-05-18T21:39:18.351Z,21.67
2019-05-18T21:41:47.772Z,22.40
2019-05-18T21:44:17.334Z,22.50
2019-05-18T21:46:46.763Z,21.60
2019-05-18T21:49:16.234Z,23.83
2019-05-18T21:51:45.664Z,23.03
2019-05-18T21:54:15.223Z,23.05
2019-05-18T21:56:44.667Z,22.30
2019-05-18T21:59:14.107Z,22.50
2019-05-18T22:01:43.574Z,21.90
2019-05-18T22:04:13.075Z,23.38
2019-05-18T22:06:42.610Z,22.27
2019-05-18T22:09:12.047Z,22.33
2019-05-18T22:11:41.551Z,24.27
2019-05-18T22:14:10.988Z,22.48
2019-05-18T22:16:40.739Z,22.03
2019-05-18T22:19:10.711Z,22.77
2019-05-18T22:21:40.306Z,21.40
2019-05-18T22:24:09.771Z,20.53
2019-05-18T22:26:39.205Z,19.07
2019-05-18T22:29:08.635Z,19.67
2019-05-18T22:31:38.127Z,18.80
2019-05-18T22:34:07.595Z,18.87
2019-05-18T22:36:37.048Z,18.87
2019-05-18T22:39:07.493Z,18.57
2019-05-18T22:41:37.018Z,18.23
2019-05-18T22:44:06.572Z,17.23
2019-05-18T22:46:36.003Z,18.10
2019-05-18T22:49:05.440Z,17.33
2019-05-18T22:51:35.052Z,17.70
2019-05-18T22:54:04.655Z,17.43
2019-05-18T22:56:34.101Z,16.70
2019-05-18T22:59:03.579Z,16.13
2019-05-18T23:01:33.015Z,16.30
2019-05-18T23:04:02.519Z,16.90
2019-05-18T23:06:32.010Z,15.73
2019-05-18T23:09:01.676Z,16.23
2019-05-18T23:11:31.059Z,15.20
2019-05-18T23:14:00.495Z,14.40
2019-05-18T23:16:30.007Z,15.17
2019-05-18T23:18:59.498Z,14.60
2019-05-18T23:21:28.942Z,14.97
2019-05-18T23:23:58.435Z,13.77
2019-05-18T23:26:27.853Z,14.23
2019-05-18T23:28:57.352Z,14.33
2019-05-18T23:31:26.842Z,14.17
2019-05-18T23:33:56.242Z,15.10
2019-05-18T23:36:25.719Z,14.17
2019-05-18T23:38:55.276Z,14.87
2019-05-18T23:41:24.751Z,15.13
2019-05-18T23:43:54.114Z,15.23
2019-05-18T23:46:23.638Z,15.07
2019-05-18T23:48:53.107Z,16.03
2019-05-18T23:51:22.623Z,15.83
2019-05-18T23:53:53.766Z,15.87
2019-05-18T23:56:23.262Z,15.13
2019-05-18T23:58:52.628Z,16.33
